createdAt,value
2022-09-21T00:00:08.747Z,100.00
2022-09-21T00:01:21.255Z,100.00
2022-09-21T00:02:25.116Z,100.00
2022-09-21T00:03:29.068Z,100.00
2022-09-21T00:04:32.611Z,100.00
2022-09-21T00:05:36.551Z,100.00
2022-09-21T00:06:40.388Z,100.00
2022-09-21T00:07:45.251Z,100.00
2022-09-21T00:08:49.743Z,100.00
2022-09-21T00:09:53.358Z,100.00
2022-09-21T00:10:56.984Z,100.00
2022-09-21T00:12:00.677Z,100.00
2022-09-21T00:13:05.873Z,100.00
2022-09-21T00:14:14.307Z,100.00
2022-09-21T00:15:18.046Z,100.00
2022-09-21T00:16:22.550Z,100.00
2022-09-21T00:17:26.175Z,100.00
2022-09-21T00:18:30.152Z,100.00
2022-09-21T00:19:36.303Z,100.00
2022-09-21T00:20:45.107Z,100.00
2022-09-21T00:21:49.109Z,100.00
2022-09-21T00:22:52.870Z,100.00
2022-09-21T00:23:57.600Z,100.00
2022-09-21T00:25:03.761Z,100.00
2022-09-21T00:26:17.479Z,100.00
2022-09-21T00:27:21.184Z,100.00
2022-09-21T00:28:24.878Z,100.00
2022-09-21T00:29:28.929Z,100.00
2022-09-21T00:30:32.570Z,100.00
2022-09-21T00:31:36.497Z,100.00
2022-09-21T00:32:40.201Z,100.00
2022-09-21T00:33:44.590Z,100.00
2022-09-21T00:34:48.373Z,100.00
2022-09-21T00:35:52.181Z,100.00
2022-09-21T00:36:55.880Z,100.00
2022-09-21T00:38:04.044Z,100.00
2022-09-21T00:39:07.761Z,100.00
2022-09-21T00:40:12.594Z,100.00
2022-09-21T00:41:16.330Z,100.00
2022-09-21T00:42:34.607Z,100.00
2022-09-21T00:43:47.466Z,100.00
2022-09-21T00:44:51.263Z,100.00
2022-09-21T00:46:12.417Z,100.00
2022-09-21T00:47:25.426Z,100.00
2022-09-21T00:48:30.284Z,100.00
2022-09-21T00:49:36.073Z,100.00
2022-09-21T00:50:49.379Z,100.00
2022-09-21T00:51:54.332Z,100.00
2022-09-21T00:52:59.030Z,100.00
2022-09-21T00:54:10.571Z,100.00
2022-09-21T00:55:43.049Z,100.00
2022-09-21T00:56:47.469Z,100.00
2022-09-21T00:58:00.145Z,100.00
2022-09-21T00:59:06.215Z,100.00
2022-09-21T01:00:11.145Z,100.00
2022-09-21T01:01:19.803Z,100.00
2022-09-21T01:02:23.709Z,100.00
2022-09-21T01:03:30.397Z,100.00
2022-09-21T01:04:36.315Z,100.00
2022-09-21T01:05:40.004Z,100.00
2022-09-21T01:06:43.801Z,100.00
2022-09-21T01:07:48.675Z,100.00
2022-09-21T01:08:59.324Z,100.00
2022-09-21T01:10:12.574Z,100.00
2022-09-21T01:11:52.018Z,100.00
2022-09-21T01:13:10.531Z,100.00
2022-09-21T01:14:40.928Z,100.00
2022-09-21T01:16:00.177Z,100.00
2022-09-21T01:17:28.538Z,100.00
2022-09-21T01:18:51.721Z,100.00
2022-09-21T01:20:32.245Z,100.00
2022-09-21T01:22:09.991Z,100.00
2022-09-21T01:23:51.575Z,100.00
2022-09-21T01:25:19.401Z,100.00
2022-09-21T01:26:47.723Z,100.00
2022-09-21T01:28:03.971Z,100.00
2022-09-21T01:29:41.255Z,100.00
2022-09-21T01:30:49.152Z,100.00
2022-09-21T01:32:01.288Z,100.00
2022-09-21T01:33:26.125Z,100.00
2022-09-21T01:34:48.844Z,100.00
2022-09-21T01:36:06.018Z,100.00
2022-09-21T01:37:22.835Z,100.00
2022-09-21T01:38:33.621Z,100.00
2022-09-21T01:39:41.381Z,100.00
2022-09-21T01:40:52.618Z,100.00
2022-09-21T01:41:58.400Z,100.00
2022-09-21T01:43:05.131Z,100.00
2022-09-21T01:44:20.444Z,100.00
2022-09-21T01:45:44.192Z,100.00
2022-09-21T01:46:49.072Z,100.00
2022-09-21T01:47:56.850Z,100.00
2022-09-21T01:49:11.026Z,100.00
2022-09-21T01:50:18.539Z,100.00
2022-09-21T01:51:28.213Z,100.00
2022-09-21T01:52:49.780Z,100.00
2022-09-21T01:54:20.980Z,100.00
2022-09-21T01:55:36.441Z,100.00
2022-09-21T01:56:52.180Z,100.00
2022-09-21T01:58:17.750Z,100.00
2022-09-21T01:59:54.559Z,100.00
2022-09-21T02:00:59.728Z,100.00
2022-09-21T02:02:16.170Z,100.00
2022-09-21T02:03:48.004Z,100.00
2022-09-21T02:04:52.037Z,100.00
2022-09-21T02:05:58.554Z,100.00
2022-09-21T02:07:03.008Z,100.00
2022-09-21T02:08:09.389Z,100.00
2022-09-21T02:09:14.382Z,100.00
2022-09-21T02:10:37.151Z,100.00
2022-09-21T02:11:44.255Z,100.00
2022-09-21T02:12:51.893Z,100.00
2022-09-21T02:13:56.496Z,100.00
2022-09-21T02:15:03.062Z,100.00
2022-09-21T02:16:12.480Z,100.00
2022-09-21T02:17:38.692Z,100.00
2022-09-21T02:19:11.005Z,100.00
2022-09-21T02:20:31.864Z,100.00
2022-09-21T02:21:59.924Z,100.00
2022-09-21T02:23:25.467Z,100.00
2022-09-21T02:24:51.036Z,100.00
2022-09-21T02:25:54.966Z,100.00
2022-09-21T02:27:11.723Z,100.00
2022-09-21T02:28:46.853Z,100.00
2022-09-21T02:30:14.946Z,100.00
2022-09-21T02:31:59.790Z,100.00
2022-09-21T02:33:37.740Z,100.00
2022-09-21T02:35:03.520Z,100.00
2022-09-21T02:36:22.411Z,100.00
2022-09-21T02:37:48.732Z,100.00
2022-09-21T02:39:16.074Z,100.00
2022-09-21T02:40:31.439Z,100.00
2022-09-21T02:41:50.747Z,100.00
2022-09-21T02:43:04.105Z,100.00
2022-09-21T02:44:23.696Z,100.00
2022-09-21T02:45:37.085Z,100.00
2022-09-21T02:47:25.658Z,100.00
2022-09-21T02:48:51.719Z,100.00
2022-09-21T02:50:05.270Z,100.00
2022-09-21T02:51:19.518Z,100.00
2022-09-21T02:52:26.543Z,100.00
2022-09-21T02:53:36.699Z,100.00
2022-09-21T02:54:43.981Z,100.00
2022-09-21T02:55:56.335Z,100.00
2022-09-21T02:57:03.406Z,100.00
2022-09-21T02:58:12.304Z,100.00
2022-09-21T02:59:19.173Z,100.00
2022-09-21T03:00:22.805Z,100.00
2022-09-21T03:01:28.780Z,100.00
2022-09-21T03:02:45.047Z,100.00
2022-09-21T03:03:49.653Z,100.00
2022-09-21T03:04:54.343Z,100.00
2022-09-21T03:05:58.021Z,100.00
2022-09-21T03:07:01.661Z,100.00
2022-09-21T03:08:06.995Z,100.00
2022-09-21T03:09:10.509Z,100.00
2022-09-21T03:10:14.127Z,100.00
2022-09-21T03:11:19.739Z,100.00
2022-09-21T03:12:24.405Z,100.00
2022-09-21T03:13:28.112Z,100.00
2022-09-21T03:14:33.224Z,100.00
2022-09-21T03:15:39.795Z,100.00
2022-09-21T03:16:43.503Z,100.00
2022-09-21T03:17:47.156Z,100.00
2022-09-21T03:18:50.870Z,100.00
2022-09-21T03:19:55.197Z,100.00
2022-09-21T03:20:59.131Z,100.00
2022-09-21T03:22:03.367Z,100.00
2022-09-21T03:23:07.758Z,100.00
2022-09-21T03:24:11.468Z,100.00
2022-09-21T03:25:15.262Z,100.00
2022-09-21T03:26:22.282Z,100.00
2022-09-21T03:27:25.856Z,100.00
2022-09-21T03:28:29.536Z,100.00
2022-09-21T03:29:33.315Z,100.00
2022-09-21T03:30:37.220Z,100.00
2022-09-21T03:31:40.687Z,100.00
2022-09-21T03:32:44.394Z,100.00
2022-09-21T03:33:48.373Z,100.00
2022-09-21T03:34:52.492Z,100.00
2022-09-21T03:35:56.099Z,100.00
2022-09-21T03:37:00.581Z,100.00
2022-09-21T03:38:04.684Z,100.00
2022-09-21T03:39:08.230Z,100.00
2022-09-21T03:40:13.123Z,100.00
2022-09-21T03:41:17.080Z,100.00
2022-09-21T03:42:24.575Z,100.00
2022-09-21T03:43:28.282Z,100.00
2022-09-21T03:44:31.847Z,100.00
2022-09-21T03:45:35.497Z,100.00
2022-09-21T03:46:39.193Z,100.00
2022-09-21T03:47:43.037Z,100.00
2022-09-21T03:48:48.434Z,100.00
2022-09-21T03:49:52.106Z,100.00
2022-09-21T03:50:56.039Z,100.00
2022-09-21T03:51:59.727Z,100.00
2022-09-21T03:53:03.686Z,100.00
2022-09-21T03:54:07.279Z,100.00
2022-09-21T03:55:11.069Z,100.00
2022-09-21T03:56:14.857Z,100.00
2022-09-21T03:57:18.840Z,100.00
2022-09-21T03:58:22.665Z,100.00
2022-09-21T03:59:26.144Z,100.00
2022-09-21T04:00:30.807Z,100.00
2022-09-21T04:01:34.781Z,100.00
2022-09-21T04:02:40.862Z,100.00
2022-09-21T04:03:44.563Z,100.00
2022-09-21T04:04:48.319Z,100.00
2022-09-21T04:05:52.345Z,100.00
2022-09-21T04:06:56.259Z,100.00
2022-09-21T04:08:02.139Z,100.00
2022-09-21T04:09:06.037Z,100.00
2022-09-21T04:10:13.697Z,100.00
2022-09-21T04:11:20.354Z,100.00
2022-09-21T04:12:24.956Z,100.00
2022-09-21T04:13:28.582Z,100.00
2022-09-21T04:14:32.055Z,100.00
2022-09-21T04:15:36.942Z,100.00
2022-09-21T04:16:41.079Z,100.00
2022-09-21T04:17:45.266Z,100.00
2022-09-21T04:18:50.568Z,100.00
2022-09-21T04:19:54.464Z,100.00
2022-09-21T04:20:58.298Z,100.00
2022-09-21T04:22:02.297Z,100.00
2022-09-21T04:23:07.147Z,100.00
2022-09-21T04:24:10.885Z,99.94
2022-09-21T04:25:16.243Z,100.00
2022-09-21T04:26:28.380Z,100.00
2022-09-21T04:27:33.793Z,100.00
2022-09-21T04:28:37.628Z,100.00
2022-09-21T04:29:41.580Z,100.00
2022-09-21T04:30:45.353Z,100.00
2022-09-21T04:31:48.981Z,100.00
2022-09-21T04:32:52.911Z,100.00
2022-09-21T04:33:58.712Z,99.90
2022-09-21T04:35:02.382Z,99.96
2022-09-21T04:36:06.553Z,100.00
2022-09-21T04:37:14.172Z,99.99
2022-09-21T04:38:18.064Z,99.89
2022-09-21T04:39:21.859Z,100.00
2022-09-21T04:40:25.748Z,99.94
2022-09-21T04:41:29.515Z,99.99
2022-09-21T04:42:33.774Z,100.00
2022-09-21T04:43:37.719Z,100.00
2022-09-21T04:44:44.180Z,99.63
2022-09-21T04:45:48.069Z,99.78
2022-09-21T04:46:51.764Z,99.62
2022-09-21T04:47:55.612Z,99.69
2022-09-21T04:49:00.003Z,99.59
2022-09-21T04:50:04.308Z,99.43
2022-09-21T04:51:09.823Z,99.51
2022-09-21T04:52:18.864Z,99.31
2022-09-21T04:53:23.203Z,99.27
2022-09-21T04:54:27.312Z,99.21
2022-09-21T04:55:31.071Z,99.37
2022-09-21T04:56:35.108Z,99.07
2022-09-21T04:57:38.688Z,99.17
2022-09-21T04:58:42.765Z,99.25
2022-09-21T04:59:46.748Z,98.94
2022-09-21T05:00:55.666Z,98.95
2022-09-21T05:01:59.199Z,98.94
2022-09-21T05:03:02.744Z,98.75
2022-09-21T05:04:06.474Z,98.60
2022-09-21T05:05:10.132Z,98.75
2022-09-21T05:06:13.917Z,98.44
2022-09-21T05:07:17.503Z,98.53
2022-09-21T05:08:42.908Z,98.33
2022-09-21T05:10:04.800Z,98.45
2022-09-21T05:11:21.820Z,98.10
2022-09-21T05:12:26.251Z,98.18
2022-09-21T05:13:30.039Z,98.20
2022-09-21T05:14:34.334Z,98.14
2022-09-21T05:15:39.597Z,97.98
2022-09-21T05:16:43.712Z,98.14
2022-09-21T05:17:47.309Z,98.16
2022-09-21T05:18:55.497Z,97.98
2022-09-21T05:19:59.162Z,97.64
2022-09-21T05:21:06.502Z,98.05
2022-09-21T05:22:10.224Z,97.79
2022-09-21T05:23:16.828Z,97.92
2022-09-21T05:24:20.482Z,97.73
2022-09-21T05:25:23.984Z,97.66
2022-09-21T05:26:27.618Z,97.66
2022-09-21T05:27:31.458Z,97.75
2022-09-21T05:28:39.710Z,97.68
2022-09-21T05:29:44.435Z,97.63
2022-09-21T05:31:38.377Z,97.39
2022-09-21T05:32:49.541Z,97.32
2022-09-21T05:34:03.973Z,97.39
2022-09-21T05:35:16.552Z,97.37
2022-09-21T05:37:10.034Z,97.02
2022-09-21T05:38:20.650Z,96.88
2022-09-21T05:39:25.151Z,97.11
2022-09-21T05:40:29.153Z,97.03
2022-09-21T05:41:33.414Z,97.30
2022-09-21T05:42:37.508Z,97.37
2022-09-21T05:43:41.686Z,97.14
2022-09-21T05:44:46.034Z,97.11
2022-09-21T05:46:03.413Z,97.13
2022-09-21T05:47:46.433Z,97.12
2022-09-21T05:49:03.367Z,96.83
2022-09-21T05:50:41.883Z,97.13
2022-09-21T05:51:57.387Z,96.65
2022-09-21T05:53:31.177Z,96.84
2022-09-21T05:55:07.715Z,96.79
2022-09-21T05:56:48.088Z,96.69
2022-09-21T05:58:35.773Z,96.77
2022-09-21T06:02:38.373Z,97.08
2022-09-21T06:03:43.414Z,96.69
2022-09-21T06:04:49.679Z,96.60
2022-09-21T06:05:53.300Z,96.66
2022-09-21T06:06:56.990Z,96.60
2022-09-21T06:08:00.939Z,96.50
2022-09-21T06:09:13.763Z,96.73
2022-09-21T06:10:17.958Z,96.53
2022-09-21T06:11:22.302Z,96.58
2022-09-21T06:12:26.672Z,96.27
2022-09-21T06:13:30.570Z,96.21
2022-09-21T06:14:34.207Z,96.71
2022-09-21T06:15:38.667Z,96.29
2022-09-21T06:16:43.786Z,96.55
2022-09-21T06:17:47.421Z,96.33
2022-09-21T06:18:51.203Z,96.49
2022-09-21T06:19:54.876Z,96.61
2022-09-21T06:20:58.503Z,96.63
2022-09-21T06:22:02.538Z,96.75
2022-09-21T06:23:10.844Z,96.52
2022-09-21T06:24:14.683Z,96.17
2022-09-21T06:25:20.417Z,96.09
2022-09-21T06:26:24.333Z,95.88
2022-09-21T06:27:31.229Z,96.14
2022-09-21T06:28:34.989Z,95.95
2022-09-21T06:29:38.680Z,95.87
2022-09-21T06:30:43.485Z,95.84
2022-09-21T06:31:47.073Z,96.19
2022-09-21T06:32:50.894Z,96.09
2022-09-21T06:33:54.702Z,96.01
2022-09-21T06:34:58.748Z,95.99
2022-09-21T06:36:02.802Z,95.76
2022-09-21T06:37:06.400Z,95.75
2022-09-21T06:38:10.602Z,95.64
2022-09-21T06:39:15.464Z,95.73
2022-09-21T06:40:19.379Z,95.55
2022-09-21T06:41:23.263Z,95.69
2022-09-21T06:42:28.095Z,95.64
2022-09-21T06:43:41.903Z,95.62
2022-09-21T06:44:48.182Z,95.54
2022-09-21T06:45:58.712Z,95.62
2022-09-21T06:47:02.520Z,95.72
2022-09-21T06:49:33.813Z,95.80
2022-09-21T06:50:37.883Z,96.05
2022-09-21T06:51:43.775Z,96.11
2022-09-21T06:52:48.164Z,96.37
2022-09-21T06:53:57.156Z,96.39
2022-09-21T06:55:01.402Z,96.04
2022-09-21T06:56:08.924Z,95.71
2022-09-21T06:57:12.841Z,95.59
2022-09-21T06:58:16.694Z,95.34
2022-09-21T06:59:20.497Z,95.61
2022-09-21T07:00:24.138Z,95.47
2022-09-21T07:01:30.129Z,95.16
2022-09-21T07:02:34.106Z,95.20
2022-09-21T07:03:40.508Z,94.89
2022-09-21T07:04:44.617Z,95.03
2022-09-21T07:05:48.253Z,94.89
2022-09-21T07:06:52.302Z,94.67
2022-09-21T07:07:59.680Z,94.66
2022-09-21T07:10:27.678Z,94.56
2022-09-21T07:11:31.405Z,94.46
2022-09-21T07:12:35.823Z,94.53
2022-09-21T07:13:41.187Z,94.43
2022-09-21T07:14:46.258Z,94.15
2022-09-21T07:15:53.246Z,94.36
2022-09-21T07:16:57.900Z,94.41
2022-09-21T07:18:10.429Z,94.23
2022-09-21T07:19:14.403Z,94.16
2022-09-21T07:20:18.090Z,93.82
2022-09-21T07:21:21.983Z,93.91
2022-09-21T07:22:25.716Z,94.03
2022-09-21T07:23:29.693Z,94.07
2022-09-21T07:24:33.846Z,93.57
2022-09-21T07:25:37.703Z,93.69
2022-09-21T07:26:41.548Z,94.02
2022-09-21T07:27:45.228Z,93.92
2022-09-21T07:28:49.187Z,93.69
2022-09-21T07:29:53.375Z,94.02
2022-09-21T07:30:58.668Z,93.45
2022-09-21T07:32:02.776Z,92.99
2022-09-21T07:33:07.261Z,92.47
2022-09-21T07:34:11.471Z,92.30
2022-09-21T07:35:15.483Z,92.04
2022-09-21T07:36:19.391Z,91.49
2022-09-21T07:37:27.475Z,91.32
2022-09-21T07:38:35.690Z,91.01
2022-09-21T07:39:39.308Z,90.69
2022-09-21T07:40:43.035Z,90.63
2022-09-21T07:41:46.645Z,90.39
2022-09-21T07:42:50.827Z,90.29
2022-09-21T07:43:54.850Z,90.39
2022-09-21T07:45:03.846Z,90.34
2022-09-21T07:46:11.095Z,90.27
2022-09-21T07:47:16.388Z,90.47
2022-09-21T07:48:19.991Z,89.92
2022-09-21T07:49:23.657Z,90.04
2022-09-21T07:50:27.636Z,89.71
2022-09-21T07:51:32.177Z,89.72
2022-09-21T07:52:36.142Z,89.82
2022-09-21T07:53:44.624Z,89.68
2022-09-21T07:54:48.291Z,89.24
2022-09-21T07:55:51.958Z,89.63
2022-09-21T07:57:14.093Z,89.70
2022-09-21T07:58:36.465Z,89.88
2022-09-21T07:59:39.987Z,90.16
2022-09-21T08:00:44.259Z,90.22
2022-09-21T08:01:48.161Z,89.84
2022-09-21T08:02:52.278Z,89.53
2022-09-21T08:03:58.530Z,89.45
2022-09-21T08:05:02.326Z,88.93
2022-09-21T08:06:07.286Z,88.80
2022-09-21T08:07:11.615Z,88.45
2022-09-21T08:08:17.117Z,88.86
2022-09-21T08:09:20.768Z,88.87
2022-09-21T08:10:30.106Z,88.74
2022-09-21T08:11:34.599Z,88.86
2022-09-21T08:12:38.930Z,88.84
2022-09-21T08:13:42.756Z,88.94
2022-09-21T08:14:48.388Z,89.32
2022-09-21T08:16:02.015Z,89.50
2022-09-21T08:17:05.894Z,89.75
2022-09-21T08:18:09.629Z,90.05
2022-09-21T08:19:17.407Z,89.92
2022-09-21T08:20:22.040Z,90.36
2022-09-21T08:21:25.946Z,90.24
2022-09-21T08:22:29.838Z,90.31
2022-09-21T08:23:33.646Z,90.80
2022-09-21T08:24:37.886Z,90.44
2022-09-21T08:25:41.642Z,90.66
2022-09-21T08:26:45.454Z,90.69
2022-09-21T08:27:49.399Z,91.12
2022-09-21T08:28:55.673Z,91.08
2022-09-21T08:29:59.250Z,91.30
2022-09-21T08:31:10.773Z,90.90
2022-09-21T08:32:27.723Z,90.54
2022-09-21T08:33:38.339Z,90.38
2022-09-21T08:34:42.286Z,90.62
2022-09-21T08:35:57.405Z,90.61
2022-09-21T08:37:01.339Z,90.39
2022-09-21T08:38:05.120Z,90.36
2022-09-21T08:39:09.724Z,90.36
2022-09-21T08:40:17.058Z,90.73
2022-09-21T08:41:53.414Z,90.54
2022-09-21T08:43:10.556Z,90.58
2022-09-21T08:44:51.419Z,90.32
2022-09-21T08:46:00.163Z,90.39
2022-09-21T08:47:40.780Z,90.29
2022-09-21T08:49:11.875Z,89.83
2022-09-21T08:50:39.831Z,90.35
2022-09-21T08:52:01.674Z,90.04
2022-09-21T08:53:14.052Z,89.89
2022-09-21T08:54:44.104Z,90.19
2022-09-21T08:55:47.732Z,90.01
2022-09-21T08:57:05.119Z,90.33
2022-09-21T08:58:34.041Z,90.98
2022-09-21T08:59:45.843Z,90.98
2022-09-21T09:01:07.823Z,91.25
2022-09-21T09:02:58.213Z,91.32
2022-09-21T09:04:31.256Z,91.57
2022-09-21T09:06:19.961Z,91.27
2022-09-21T09:07:36.966Z,90.84
2022-09-21T09:09:02.509Z,91.04
2022-09-21T09:10:38.226Z,91.06
2022-09-21T09:12:22.967Z,90.72
2022-09-21T09:14:14.417Z,90.74
2022-09-21T09:15:42.723Z,90.87
2022-09-21T09:17:29.820Z,91.11
2022-09-21T09:18:46.813Z,91.05
2022-09-21T09:20:11.194Z,90.93
2022-09-21T09:21:30.866Z,91.07
2022-09-21T09:22:48.071Z,91.06
2022-09-21T09:24:04.518Z,90.59
2022-09-21T09:25:24.655Z,90.50
2022-09-21T09:26:57.586Z,90.28
2022-09-21T09:28:37.178Z,90.58
2022-09-21T09:30:05.327Z,90.37
2022-09-21T09:31:29.607Z,89.67
2022-09-21T09:33:08.883Z,89.70
2022-09-21T09:34:22.872Z,89.56
2022-09-21T09:35:33.587Z,89.80
2022-09-21T09:36:57.954Z,89.54
2022-09-21T09:38:52.884Z,89.86
2022-09-21T09:40:01.451Z,89.50
2022-09-21T09:41:11.024Z,89.40
2022-09-21T09:42:51.528Z,89.32
2022-09-21T09:44:22.815Z,89.15
2022-09-21T09:46:08.931Z,89.12
2022-09-21T09:47:30.694Z,88.66
2022-09-21T09:49:14.717Z,88.48
2022-09-21T09:50:41.774Z,88.68
2022-09-21T09:51:46.790Z,89.10
2022-09-21T09:52:55.171Z,89.35
2022-09-21T09:54:01.221Z,89.58
2022-09-21T09:55:40.778Z,89.81
2022-09-21T09:56:48.242Z,89.58
2022-09-21T09:57:56.207Z,89.54
2022-09-21T09:59:08.295Z,89.56
2022-09-21T10:00:19.811Z,89.85
2022-09-21T10:01:46.703Z,89.91
2022-09-21T10:02:54.461Z,89.72
2022-09-21T10:04:17.670Z,89.31
2022-09-21T10:05:35.607Z,89.08
2022-09-21T10:06:45.847Z,88.40
2022-09-21T10:07:52.481Z,87.95
2022-09-21T10:08:56.134Z,87.70
2022-09-21T10:09:59.712Z,87.88
2022-09-21T10:11:05.052Z,87.59
2022-09-21T10:12:28.134Z,87.74
2022-09-21T10:13:46.477Z,87.55
2022-09-21T10:14:56.973Z,87.16
2022-09-21T10:16:04.793Z,87.36
2022-09-21T10:17:16.498Z,87.33
2022-09-21T10:18:24.186Z,87.33
2022-09-21T10:19:29.167Z,87.51
2022-09-21T10:20:33.616Z,87.56
2022-09-21T10:21:51.361Z,87.49
2022-09-21T10:22:57.306Z,87.22
2022-09-21T10:24:22.975Z,87.30
2022-09-21T10:25:27.297Z,87.10
2022-09-21T10:26:50.248Z,87.52
2022-09-21T10:27:56.037Z,87.50
2022-09-21T10:29:03.067Z,87.52
2022-09-21T10:30:32.874Z,87.33
2022-09-21T10:31:36.857Z,87.36
2022-09-21T10:32:57.165Z,87.32
2022-09-21T10:34:17.427Z,87.12
2022-09-21T10:35:21.433Z,86.96
2022-09-21T10:36:34.446Z,87.33
2022-09-21T10:37:53.769Z,87.07
2022-09-21T10:39:17.645Z,86.97
2022-09-21T10:40:21.645Z,87.16
2022-09-21T10:41:26.062Z,87.05
2022-09-21T10:42:42.296Z,87.06
2022-09-21T10:43:46.214Z,86.58
2022-09-21T10:45:04.148Z,86.91
2022-09-21T10:46:07.832Z,86.45
2022-09-21T10:47:23.897Z,86.52
2022-09-21T10:48:29.681Z,86.09
2022-09-21T10:49:34.365Z,85.67
2022-09-21T10:50:49.325Z,85.53
2022-09-21T10:51:58.500Z,85.57
2022-09-21T10:53:10.843Z,85.31
2022-09-21T10:54:31.924Z,85.18
2022-09-21T10:55:58.465Z,85.00
2022-09-21T10:57:20.095Z,84.64
2022-09-21T10:58:24.121Z,84.59
2022-09-21T10:59:32.836Z,84.60
2022-09-21T11:00:50.755Z,84.55
2022-09-21T11:01:58.104Z,84.32
2022-09-21T11:03:33.088Z,84.34
2022-09-21T11:04:46.341Z,84.48
2022-09-21T11:05:53.691Z,84.30
2022-09-21T11:07:35.225Z,84.17
2022-09-21T11:08:52.947Z,84.19
2022-09-21T11:10:09.938Z,84.12
2022-09-21T11:11:47.488Z,83.91
2022-09-21T11:13:14.885Z,83.84
2022-09-21T11:14:47.911Z,84.00
2022-09-21T11:16:37.839Z,84.51
2022-09-21T11:17:57.514Z,84.66
2022-09-21T11:19:34.279Z,85.19
2022-09-21T11:21:09.836Z,85.35
2022-09-21T11:22:58.358Z,85.52
2022-09-21T11:24:25.071Z,85.21
2022-09-21T11:25:46.817Z,84.77
2022-09-21T11:27:12.949Z,84.84
2022-09-21T11:28:34.656Z,84.48
2022-09-21T11:30:16.446Z,83.75
2022-09-21T11:32:05.934Z,83.85
2022-09-21T11:34:09.244Z,83.56
2022-09-21T11:36:02.772Z,83.59
2022-09-21T11:37:50.378Z,83.74
2022-09-21T11:39:03.965Z,83.33
2022-09-21T11:40:38.989Z,83.22
2022-09-21T11:42:11.514Z,82.80
2022-09-21T11:43:27.168Z,82.25
2022-09-21T11:45:02.563Z,81.94
2022-09-21T11:46:12.215Z,81.89
2022-09-21T11:47:25.921Z,81.10
2022-09-21T11:49:20.609Z,81.06
2022-09-21T11:50:36.938Z,80.92
2022-09-21T11:52:14.269Z,80.35
2022-09-21T11:53:42.362Z,80.21
2022-09-21T11:55:06.810Z,79.96
2022-09-21T11:56:44.625Z,79.72
2022-09-21T11:58:10.659Z,79.32
2022-09-21T11:59:47.973Z,78.59
2022-09-21T12:01:41.941Z,78.26
2022-09-21T12:03:03.376Z,78.71
2022-09-21T12:04:48.302Z,78.69
2022-09-21T12:06:35.485Z,78.63
2022-09-21T12:08:24.002Z,79.09
2022-09-21T12:09:49.443Z,78.47
2022-09-21T12:11:34.631Z,78.17
2022-09-21T12:13:01.061Z,77.34
2022-09-21T12:14:10.029Z,76.56
2022-09-21T12:15:47.791Z,76.00
2022-09-21T12:17:24.561Z,75.33
2022-09-21T12:19:05.218Z,74.78
2022-09-21T12:20:21.144Z,74.39
2022-09-21T12:21:46.298Z,74.35
2022-09-21T12:23:09.500Z,74.23
2022-09-21T12:24:22.308Z,73.89
2022-09-21T12:25:41.043Z,72.66
2022-09-21T12:26:51.997Z,72.45
2022-09-21T12:28:07.903Z,72.49
2022-09-21T12:29:25.394Z,72.26
2022-09-21T12:30:32.438Z,72.28
2022-09-21T12:31:56.568Z,71.79
2022-09-21T12:34:06.448Z,70.82
2022-09-21T12:35:22.316Z,71.60
2022-09-21T12:36:39.475Z,71.45
2022-09-21T12:38:05.548Z,71.04
2022-09-21T12:39:30.388Z,70.51
2022-09-21T12:41:16.036Z,70.29
2022-09-21T12:42:48.946Z,70.48
2022-09-21T12:44:34.181Z,70.58
2022-09-21T12:45:48.570Z,71.22
2022-09-21T12:47:12.643Z,70.89
2022-09-21T12:48:38.976Z,70.89
2022-09-21T12:49:48.991Z,71.23
2022-09-21T12:51:05.048Z,71.27
2022-09-21T12:52:18.006Z,71.48
2022-09-21T12:53:27.430Z,71.46
2022-09-21T12:54:41.689Z,71.51
2022-09-21T12:56:16.567Z,71.27
2022-09-21T12:58:16.316Z,71.28
2022-09-21T12:59:42.355Z,70.95
2022-09-21T13:01:21.508Z,70.43
2022-09-21T13:02:58.762Z,70.16
2022-09-21T13:04:29.600Z,69.91
2022-09-21T13:06:06.726Z,69.21
2022-09-21T13:08:07.477Z,69.16
2022-09-21T13:09:20.577Z,68.78
2022-09-21T13:11:04.946Z,68.73
2022-09-21T13:12:17.056Z,68.05
2022-09-21T13:13:40.150Z,67.82
2022-09-21T13:14:51.859Z,67.58
2022-09-21T13:15:59.475Z,67.39
2022-09-21T13:17:06.426Z,66.73
2022-09-21T13:18:36.515Z,66.35
2022-09-21T13:19:41.317Z,66.23
2022-09-21T13:20:46.488Z,66.19
2022-09-21T13:22:23.835Z,66.08
2022-09-21T13:23:42.343Z,66.40
2022-09-21T13:25:29.949Z,66.35
2022-09-21T13:26:44.681Z,66.47
2022-09-21T13:28:12.078Z,66.56
2022-09-21T13:29:25.317Z,66.65
2022-09-21T13:30:33.395Z,66.66
2022-09-21T13:32:00.868Z,66.58
2022-09-21T13:33:25.370Z,67.24
2022-09-21T13:34:41.545Z,67.59
2022-09-21T13:35:51.337Z,67.51
2022-09-21T13:37:15.145Z,67.13
2022-09-21T13:38:54.371Z,67.63
2022-09-21T13:40:04.578Z,67.58
2022-09-21T13:41:17.841Z,67.48
2022-09-21T13:42:30.816Z,67.72
2022-09-21T13:44:20.299Z,67.14
2022-09-21T13:45:24.866Z,67.15
2022-09-21T13:46:51.874Z,67.15
2022-09-21T13:48:00.258Z,67.16
2022-09-21T13:49:14.110Z,67.43
2022-09-21T13:50:29.742Z,67.45
2022-09-21T13:51:35.140Z,67.37
2022-09-21T13:52:46.353Z,67.12
2022-09-21T13:53:58.043Z,66.97
2022-09-21T13:55:07.396Z,67.17
2022-09-21T13:56:26.377Z,66.72
2022-09-21T13:57:38.431Z,67.02
2022-09-21T13:58:48.981Z,67.25
2022-09-21T14:00:08.439Z,66.56
2022-09-21T14:02:51.819Z,66.89
2022-09-21T14:04:03.460Z,66.66
2022-09-21T14:05:40.847Z,66.94
2022-09-21T14:06:49.810Z,66.64
2022-09-21T14:08:02.061Z,66.91
2022-09-21T14:09:20.006Z,66.90
2022-09-21T14:10:25.828Z,66.68
2022-09-21T14:11:40.883Z,66.92
2022-09-21T14:12:45.291Z,66.62
2022-09-21T14:14:18.446Z,66.64
2022-09-21T14:15:22.400Z,66.52
2022-09-21T14:16:34.589Z,66.72
2022-09-21T14:17:40.802Z,66.79
2022-09-21T14:18:47.086Z,66.71
2022-09-21T14:20:00.117Z,66.67
2022-09-21T14:21:17.865Z,66.09
2022-09-21T14:22:21.315Z,66.23
2022-09-21T14:23:24.689Z,66.22
2022-09-21T14:24:51.539Z,66.24
2022-09-21T14:26:19.082Z,66.41
2022-09-21T14:27:47.377Z,66.45
2022-09-21T14:28:53.622Z,66.25
2022-09-21T14:30:05.947Z,66.27
2022-09-21T14:31:33.447Z,66.66
2022-09-21T14:33:07.567Z,67.15
2022-09-21T14:34:23.678Z,68.22
2022-09-21T14:35:38.328Z,68.68
2022-09-21T14:36:50.412Z,69.55
2022-09-21T14:38:01.859Z,70.15
2022-09-21T14:39:13.537Z,70.54
2022-09-21T14:40:29.041Z,71.12
2022-09-21T14:41:41.461Z,71.38
2022-09-21T14:42:47.217Z,71.67
2022-09-21T14:43:56.912Z,71.92
2022-09-21T14:45:02.513Z,72.39
2022-09-21T14:46:29.178Z,72.53
2022-09-21T14:48:02.914Z,73.04
2022-09-21T14:49:59.295Z,73.09
2022-09-21T14:51:18.536Z,72.79
2022-09-21T14:53:07.307Z,73.05
2022-09-21T14:54:57.231Z,73.28
2022-09-21T14:56:30.495Z,73.05
2022-09-21T14:58:14.523Z,73.65
2022-09-21T14:59:41.124Z,73.58
2022-09-21T15:00:50.096Z,73.25
2022-09-21T15:02:11.559Z,74.10
2022-09-21T15:03:49.226Z,74.43
2022-09-21T15:05:18.773Z,74.38
2022-09-21T15:07:09.193Z,74.55
2022-09-21T15:09:26.780Z,74.90
2022-09-21T15:10:58.077Z,75.26
2022-09-21T15:12:20.140Z,75.35
2022-09-21T15:13:47.956Z,75.89
2022-09-21T15:15:04.394Z,75.90
2022-09-21T15:16:38.592Z,76.40
2022-09-21T15:17:59.811Z,76.43
2022-09-21T15:19:27.855Z,76.60
2022-09-21T15:20:32.978Z,76.48
2022-09-21T15:21:38.267Z,76.64
2022-09-21T15:22:44.773Z,76.73
2022-09-21T15:23:50.721Z,76.76
2022-09-21T15:24:58.207Z,76.93
2022-09-21T15:26:19.488Z,77.16
2022-09-21T15:27:33.456Z,77.42
2022-09-21T15:29:08.827Z,77.97
2022-09-21T15:30:27.069Z,78.22
2022-09-21T15:31:41.735Z,78.34
2022-09-21T15:32:53.266Z,78.16
2022-09-21T15:33:57.472Z,78.58
2022-09-21T15:35:04.071Z,78.40
2022-09-21T15:36:09.822Z,78.58
2022-09-21T15:37:20.152Z,78.70
2022-09-21T15:38:33.832Z,79.26
2022-09-21T15:39:37.542Z,79.04
2022-09-21T15:40:50.220Z,79.33
2022-09-21T15:42:23.346Z,79.76
2022-09-21T15:43:27.312Z,79.70
2022-09-21T15:44:37.021Z,79.57
2022-09-21T15:45:58.830Z,79.79
2022-09-21T15:47:04.436Z,79.67
2022-09-21T15:48:12.602Z,79.95
2022-09-21T15:49:23.562Z,80.17
2022-09-21T15:50:29.563Z,79.96
2022-09-21T15:51:40.854Z,80.00
2022-09-21T15:53:04.674Z,80.25